Covert, Michigan
Current Conditions -  °F | °C
As of 3:35 AM on Sunday 21 Dec 2014 (Local Time) from KLWA Reporting Station
Overcast Overcast  
Wind Chill: 27°   Ceiling: 6000
Heat Index: 31°   Visibility: 7mi
Dew Point: 27°   Wind: 5mph
Humidity: 85%   Direction: 170°S
Pressure: 30.27"   Gusts: NA
Location:  42.29°N, 86.26°W
Report Text: KLWA 210835Z AUTO 17004KT 7SM SCT048 OVC060 00/M03 A3027 RMK AO2 T10031026
Loading
Personal Weather Stations






























Interactive Weather Map New forecast layout! Learn more

10-Day Weather Forecast

Advertisements
Track Severe Weather on mobile